Impacts METAR Board
IDs:

KLBE - Latrobe/Palmer Rgnl, PA, US

Updated at: 2300 UTC 01 Feb 2023
Potential Impact None Slight Moderate High
Time 01/11Z 01/12Z 01/13Z 01/14Z 01/15Z 01/16Z 01/17Z 01/18Z 01/19Z 01/20Z 01/21Z 01/22Z 01/23Z
Temp18 16 16 16 16 19 21 23 23 25 25 25 23
Dewpt12 12 12 12 9 10 10 10 9 9 9 9 7
Altim30.28 30.31 30.33 30.36 30.38 30.38 30.37 30.34 30.30 30.30 30.30 30.29 30.29
VIS10 10 10 10 10 15 15 15 15 15 15 20 20
CIG-- -- 21 18 -- -- -- -- -- -- -- -- --
CoverCLRSCTBKNBKNSCTSCTSCTCLRCLRCLRCLRCLRCLR
FltCatVFRVFRMVFRMVFRVFRVFRVFRVFRVFRVFRVFRVFRVFR
WX--------------------------
WDir300032002602202002202302302202300
WSpd6 0 5 0 3 5 7 8 8 8 7 6 0
WGst-- -- -- -- -- -- -- -- -- -- -- -- --
Raw hourly METARs
KLBE 011055Z AUTO 30006KT 10SM CLR M08/M11 A3028 RMK AO2
KLBE 011147Z 00000KT 10SM SCT021 M09/M11 A3031
KLBE 011247Z 32005KT 10SM BKN021 M09/M11 A3033
KLBE 011347Z 00000KT 10SM BKN018 M09/M11 A3036
KLBE 011447Z 26003KT 10SM SCT019 M09/M13 A3038
KLBE 011547Z 22005KT 15SM SCT018 M07/M12 A3038
KLBE 011647Z 20007KT 15SM SCT024 M06/M12 A3037
KLBE 011750Z 22008KT 15SM CLR M05/M12 A3034
KLBE 011850Z 23008KT 15SM CLR M05/M13 A3030
KLBE 011955Z 23008KT 15SM CLR M04/M13 A3030
KLBE 012045Z 22007KT 15SM CLR M04/M13 A3030
KLBE 012147Z 23006KT 20SM CLR M04/M13 A3029
KLBE 012247Z 00000KT 20SM CLR M05/M14 A3029



Page loaded:  23:07 UTC  |   03:07 PM Pacific  |   04:07 PM Mountain  |   05:07 PM Central  |   06:07 PM Eastern

 

ADVISORIES

FORECASTS

FORECASTS

OBSERVATIONS

USER TOOLS

ABOUT US